sensor_id;sensor_type;location;lat;lon;timestamp;P1;durP1;ratioP1;P2;durP2;ratioP2
37787;SDS011;23627;53.302;-6.362;2023-04-23T00:00:36;6.32;;;4.85;;
37787;SDS011;23627;53.302;-6.362;2023-04-23T00:03:06;7.13;;;5.45;;
37787;SDS011;23627;53.302;-6.362;2023-04-23T00:05:34;8.45;;;5.55;;
37787;SDS011;23627;53.302;-6.362;2023-04-23T00:08:03;6.65;;;5.38;;
37787;SDS011;23627;53.302;-6.362;2023-04-23T00:10:30;7.93;;;5.45;;
37787;SDS011;23627;53.302;-6.362;2023-04-23T00:12:56;7.82;;;5.57;;
37787;SDS011;23627;53.302;-6.362;2023-04-23T00:15:22;7.60;;;5.43;;
37787;SDS011;23627;53.302;-6.362;2023-04-23T00:17:47;6.35;;;5.05;;
37787;SDS011;23627;53.302;-6.362;2023-04-23T00:20:14;8.88;;;6.00;;
37787;SDS011;23627;53.302;-6.362;2023-04-23T00:22:40;7.13;;;5.47;;
37787;SDS011;23627;53.302;-6.362;2023-04-23T00:25:07;5.90;;;4.78;;
37787;SDS011;23627;53.302;-6.362;2023-04-23T00:27:34;6.85;;;4.97;;
37787;SDS011;23627;53.302;-6.362;2023-04-23T00:30:00;6.43;;;4.80;;
37787;SDS011;23627;53.302;-6.362;2023-04-23T00:32:27;6.30;;;4.97;;
37787;SDS011;23627;53.302;-6.362;2023-04-23T00:34:52;7.25;;;5.05;;
37787;SDS011;23627;53.302;-6.362;2023-04-23T00:37:19;6.20;;;4.85;;
37787;SDS011;23627;53.302;-6.362;2023-04-23T00:39:45;6.80;;;4.93;;
37787;SDS011;23627;53.302;-6.362;2023-04-23T00:42:10;6.40;;;4.70;;
37787;SDS011;23627;53.302;-6.362;2023-04-23T00:44:37;5.80;;;4.50;;
37787;SDS011;23627;53.302;-6.362;2023-04-23T00:47:04;5.45;;;4.28;;
37787;SDS011;23627;53.302;-6.362;2023-04-23T00:49:31;5.22;;;4.00;;
37787;SDS011;23627;53.302;-6.362;2023-04-23T00:51:58;5.20;;;4.03;;
37787;SDS011;23627;53.302;-6.362;2023-04-23T00:54:25;5.07;;;3.97;;
37787;SDS011;23627;53.302;-6.362;2023-04-23T00:56:51;4.53;;;3.70;;
37787;SDS011;23627;53.302;-6.362;2023-04-23T00:59:17;3.47;;;3.00;;
37787;SDS011;23627;53.302;-6.362;2023-04-23T01:01:44;3.53;;;2.83;;
37787;SDS011;23627;53.302;-6.362;2023-04-23T01:04:11;3.80;;;3.00;;
37787;SDS011;23627;53.302;-6.362;2023-04-23T01:06:41;4.00;;;2.70;;
37787;SDS011;23627;53.302;-6.362;2023-04-23T01:09:08;3.00;;;2.38;;
37787;SDS011;23627;53.302;-6.362;2023-04-23T01:11:38;2.75;;;1.95;;
37787;SDS011;23627;53.302;-6.362;2023-04-23T01:14:07;2.65;;;1.75;;
37787;SDS011;23627;53.302;-6.362;2023-04-23T01:16:33;2.55;;;1.63;;
37787;SDS011;23627;53.302;-6.362;2023-04-23T01:19:06;2.67;;;1.65;;
37787;SDS011;23627;53.302;-6.362;2023-04-23T01:21:34;1.85;;;1.50;;
37787;SDS011;23627;53.302;-6.362;2023-04-23T01:24:04;2.47;;;1.70;;
37787;SDS011;23627;53.302;-6.362;2023-04-23T01:26:30;2.17;;;1.55;;
37787;SDS011;23627;53.302;-6.362;2023-04-23T01:28:56;1.83;;;1.50;;
37787;SDS011;23627;53.302;-6.362;2023-04-23T01:31:23;1.88;;;1.27;;
37787;SDS011;23627;53.302;-6.362;2023-04-23T01:33:50;1.98;;;1.33;;
37787;SDS011;23627;53.302;-6.362;2023-04-23T01:36:17;1.60;;;1.10;;
37787;SDS011;23627;53.302;-6.362;2023-04-23T01:38:43;1.55;;;1.10;;
37787;SDS011;23627;53.302;-6.362;2023-04-23T01:41:10;1.20;;;1.05;;
37787;SDS011;23627;53.302;-6.362;2023-04-23T01:43:35;1.40;;;1.00;;
37787;SDS011;23627;53.302;-6.362;2023-04-23T01:46:01;1.05;;;0.93;;
37787;SDS011;23627;53.302;-6.362;2023-04-23T01:48:27;1.17;;;0.98;;
37787;SDS011;23627;53.302;-6.362;2023-04-23T01:50:53;1.30;;;0.80;;
37787;SDS011;23627;53.302;-6.362;2023-04-23T01:53:19;1.20;;;0.80;;
37787;SDS011;23627;53.302;-6.362;2023-04-23T01:55:45;1.00;;;0.88;;
37787;SDS011;23627;53.302;-6.362;2023-04-23T01:58:12;1.20;;;0.88;;
37787;SDS011;23627;53.302;-6.362;2023-04-23T02:00:38;1.17;;;0.90;;
37787;SDS011;23627;53.302;-6.362;2023-04-23T02:03:04;2.08;;;0.90;;
37787;SDS011;23627;53.302;-6.362;2023-04-23T02:05:30;0.88;;;0.70;;
37787;SDS011;23627;53.302;-6.362;2023-04-23T02:07:58;1.35;;;0.80;;
37787;SDS011;23627;53.302;-6.362;2023-04-23T02:10:24;0.90;;;0.75;;
37787;SDS011;23627;53.302;-6.362;2023-04-23T02:12:50;1.45;;;0.88;;
37787;SDS011;23627;53.302;-6.362;2023-04-23T02:15:16;1.13;;;0.80;;
37787;SDS011;23627;53.302;-6.362;2023-04-23T02:17:43;1.67;;;0.90;;
37787;SDS011;23627;53.302;-6.362;2023-04-23T02:20:10;0.82;;;0.70;;
37787;SDS011;23627;53.302;-6.362;2023-04-23T02:22:37;1.10;;;0.90;;
37787;SDS011;23627;53.302;-6.362;2023-04-23T02:25:04;1.63;;;0.80;;
37787;SDS011;23627;53.302;-6.362;2023-04-23T02:27:31;1.27;;;0.88;;
37787;SDS011;23627;53.302;-6.362;2023-04-23T02:29:57;1.00;;;0.65;;
37787;SDS011;23627;53.302;-6.362;2023-04-23T02:32:24;0.90;;;0.80;;
37787;SDS011;23627;53.302;-6.362;2023-04-23T02:34:50;1.08;;;0.90;;
37787;SDS011;23627;53.302;-6.362;2023-04-23T02:37:16;1.20;;;0.90;;
37787;SDS011;23627;53.302;-6.362;2023-04-23T02:39:42;1.20;;;0.88;;
37787;SDS011;23627;53.302;-6.362;2023-04-23T02:42:07;1.00;;;0.70;;
37787;SDS011;23627;53.302;-6.362;2023-04-23T02:44:33;1.17;;;0.80;;
37787;SDS011;23627;53.302;-6.362;2023-04-23T02:46:59;0.90;;;0.70;;
37787;SDS011;23627;53.302;-6.362;2023-04-23T02:49:25;0.80;;;0.60;;
37787;SDS011;23627;53.302;-6.362;2023-04-23T02:51:51;1.00;;;0.80;;
37787;SDS011;23627;53.302;-6.362;2023-04-23T02:54:17;1.20;;;0.80;;
37787;SDS011;23627;53.302;-6.362;2023-04-23T02:56:42;1.08;;;0.70;;
37787;SDS011;23627;53.302;-6.362;2023-04-23T02:59:08;0.90;;;0.80;;
37787;SDS011;23627;53.302;-6.362;2023-04-23T03:01:34;1.30;;;0.90;;
37787;SDS011;23627;53.302;-6.362;2023-04-23T03:04:00;1.00;;;0.90;;
37787;SDS011;23627;53.302;-6.362;2023-04-23T03:06:27;1.75;;;0.98;;
37787;SDS011;23627;53.302;-6.362;2023-04-23T03:08:53;1.08;;;0.77;;
37787;SDS011;23627;53.302;-6.362;2023-04-23T03:11:20;1.00;;;0.90;;
37787;SDS011;23627;53.302;-6.362;2023-04-23T03:13:46;1.35;;;0.77;;
37787;SDS011;23627;53.302;-6.362;2023-04-23T03:16:12;1.05;;;0.70;;
37787;SDS011;23627;53.302;-6.362;2023-04-23T03:18:38;1.75;;;0.80;;
37787;SDS011;23627;53.302;-6.362;2023-04-23T03:21:04;1.20;;;0.80;;
37787;SDS011;23627;53.302;-6.362;2023-04-23T03:23:30;1.33;;;0.80;;
37787;SDS011;23627;53.302;-6.362;2023-04-23T03:25:56;1.70;;;0.80;;
37787;SDS011;23627;53.302;-6.362;2023-04-23T03:28:22;1.00;;;0.70;;
37787;SDS011;23627;53.302;-6.362;2023-04-23T03:30:48;1.15;;;0.80;;
37787;SDS011;23627;53.302;-6.362;2023-04-23T03:33:14;1.10;;;0.90;;
37787;SDS011;23627;53.302;-6.362;2023-04-23T03:35:40;1.45;;;0.95;;
37787;SDS011;23627;53.302;-6.362;2023-04-23T03:38:05;1.30;;;1.10;;
37787;SDS011;23627;53.302;-6.362;2023-04-23T03:40:31;1.10;;;0.80;;
37787;SDS011;23627;53.302;-6.362;2023-04-23T03:42:57;1.23;;;0.95;;
37787;SDS011;23627;53.302;-6.362;2023-04-23T03:45:23;1.17;;;0.90;;
37787;SDS011;23627;53.302;-6.362;2023-04-23T03:47:49;1.65;;;1.13;;
37787;SDS011;23627;53.302;-6.362;2023-04-23T03:50:15;1.42;;;1.08;;
37787;SDS011;23627;53.302;-6.362;2023-04-23T03:52:41;1.40;;;1.08;;
37787;SDS011;23627;53.302;-6.362;2023-04-23T03:55:07;1.42;;;0.80;;
37787;SDS011;23627;53.302;-6.362;2023-04-23T03:57:34;1.30;;;1.08;;
37787;SDS011;23627;53.302;-6.362;2023-04-23T04:00:00;1.33;;;1.00;;
37787;SDS011;23627;53.302;-6.362;2023-04-23T04:02:26;1.50;;;0.90;;
37787;SDS011;23627;53.302;-6.362;2023-04-23T04:04:52;1.30;;;1.00;;
37787;SDS011;23627;53.302;-6.362;2023-04-23T04:07:18;1.70;;;1.10;;
37787;SDS011;23627;53.302;-6.362;2023-04-23T04:09:45;1.10;;;1.00;;
37787;SDS011;23627;53.302;-6.362;2023-04-23T04:12:13;1.40;;;1.15;;
37787;SDS011;23627;53.302;-6.362;2023-04-23T04:14:40;1.30;;;1.05;;
37787;SDS011;23627;53.302;-6.362;2023-04-23T04:17:05;1.40;;;1.10;;
37787;SDS011;23627;53.302;-6.362;2023-04-23T04:19:32;1.33;;;1.00;;
37787;SDS011;23627;53.302;-6.362;2023-04-23T04:21:58;1.42;;;1.10;;
37787;SDS011;23627;53.302;-6.362;2023-04-23T04:24:26;1.38;;;1.17;;
37787;SDS011;23627;53.302;-6.362;2023-04-23T04:26:53;1.70;;;1.20;;
37787;SDS011;23627;53.302;-6.362;2023-04-23T04:29:18;1.42;;;1.10;;
37787;SDS011;23627;53.302;-6.362;2023-04-23T04:31:46;1.73;;;1.20;;
37787;SDS011;23627;53.302;-6.362;2023-04-23T04:34:12;1.42;;;0.98;;
37787;SDS011;23627;53.302;-6.362;2023-04-23T04:36:39;1.20;;;0.98;;
37787;SDS011;23627;53.302;-6.362;2023-04-23T04:39:05;1.10;;;0.95;;
37787;SDS011;23627;53.302;-6.362;2023-04-23T04:41:31;1.45;;;0.90;;
37787;SDS011;23627;53.302;-6.362;2023-04-23T04:43:57;1.13;;;1.00;;
37787;SDS011;23627;53.302;-6.362;2023-04-23T04:46:23;1.35;;;0.98;;
37787;SDS011;23627;53.302;-6.362;2023-04-23T04:48:53;2.05;;;1.00;;
37787;SDS011;23627;53.302;-6.362;2023-04-23T04:51:19;1.52;;;1.00;;
37787;SDS011;23627;53.302;-6.362;2023-04-23T04:53:45;1.20;;;0.98;;
37787;SDS011;23627;53.302;-6.362;2023-04-23T04:56:11;1.55;;;1.10;;
37787;SDS011;23627;53.302;-6.362;2023-04-23T04:58:36;1.50;;;1.20;;
37787;SDS011;23627;53.302;-6.362;2023-04-23T05:01:02;0.95;;;0.85;;
37787;SDS011;23627;53.302;-6.362;2023-04-23T05:03:29;1.27;;;1.00;;
37787;SDS011;23627;53.302;-6.362;2023-04-23T05:05:55;1.20;;;0.98;;
37787;SDS011;23627;53.302;-6.362;2023-04-23T05:08:22;1.20;;;1.08;;
37787;SDS011;23627;53.302;-6.362;2023-04-23T05:10:49;1.50;;;1.08;;
37787;SDS011;23627;53.302;-6.362;2023-04-23T05:13:15;1.40;;;1.20;;
37787;SDS011;23627;53.302;-6.362;2023-04-23T05:15:41;1.40;;;1.20;;
37787;SDS011;23627;53.302;-6.362;2023-04-23T05:18:08;1.80;;;1.42;;
37787;SDS011;23627;53.302;-6.362;2023-04-23T05:20:35;1.70;;;1.30;;
37787;SDS011;23627;53.302;-6.362;2023-04-23T05:23:01;1.58;;;1.30;;
37787;SDS011;23627;53.302;-6.362;2023-04-23T05:25:30;1.80;;;1.50;;
37787;SDS011;23627;53.302;-6.362;2023-04-23T05:27:56;2.65;;;1.77;;
37787;SDS011;23627;53.302;-6.362;2023-04-23T05:30:22;2.17;;;1.50;;
37787;SDS011;23627;53.302;-6.362;2023-04-23T05:32:48;2.15;;;1.75;;
37787;SDS011;23627;53.302;-6.362;2023-04-23T05:35:14;1.83;;;1.50;;
37787;SDS011;23627;53.302;-6.362;2023-04-23T05:37:40;2.70;;;1.90;;
37787;SDS011;23627;53.302;-6.362;2023-04-23T05:40:06;2.55;;;2.03;;
37787;SDS011;23627;53.302;-6.362;2023-04-23T05:42:36;2.72;;;2.03;;
37787;SDS011;23627;53.302;-6.362;2023-04-23T05:45:02;2.72;;;1.80;;
37787;SDS011;23627;53.302;-6.362;2023-04-23T05:47:29;2.97;;;2.00;;
37787;SDS011;23627;53.302;-6.362;2023-04-23T05:49:55;3.15;;;2.35;;
37787;SDS011;23627;53.302;-6.362;2023-04-23T05:52:23;2.15;;;1.80;;
37787;SDS011;23627;53.302;-6.362;2023-04-23T05:54:49;3.25;;;2.00;;
37787;SDS011;23627;53.302;-6.362;2023-04-23T05:57:16;2.60;;;2.03;;
37787;SDS011;23627;53.302;-6.362;2023-04-23T05:59:42;2.83;;;2.17;;
37787;SDS011;23627;53.302;-6.362;2023-04-23T06:02:08;2.65;;;2.15;;
37787;SDS011;23627;53.302;-6.362;2023-04-23T06:04:35;3.08;;;2.00;;
37787;SDS011;23627;53.302;-6.362;2023-04-23T06:10:22;2.58;;;1.92;;
37787;SDS011;23627;53.302;-6.362;2023-04-23T06:12:48;2.75;;;2.05;;
37787;SDS011;23627;53.302;-6.362;2023-04-23T06:15:14;2.55;;;2.10;;
37787;SDS011;23627;53.302;-6.362;2023-04-23T06:17:39;3.28;;;2.47;;
37787;SDS011;23627;53.302;-6.362;2023-04-23T06:20:05;2.97;;;2.20;;
37787;SDS011;23627;53.302;-6.362;2023-04-23T06:22:33;2.92;;;2.10;;
37787;SDS011;23627;53.302;-6.362;2023-04-23T06:24:58;2.85;;;2.28;;
37787;SDS011;23627;53.302;-6.362;2023-04-23T06:27:24;2.70;;;2.20;;
37787;SDS011;23627;53.302;-6.362;2023-04-23T06:29:51;3.10;;;2.20;;
37787;SDS011;23627;53.302;-6.362;2023-04-23T06:32:16;3.17;;;2.25;;
37787;SDS011;23627;53.302;-6.362;2023-04-23T06:34:42;3.05;;;2.30;;
37787;SDS011;23627;53.302;-6.362;2023-04-23T06:37:08;2.60;;;2.20;;
37787;SDS011;23627;53.302;-6.362;2023-04-23T06:39:34;3.35;;;2.60;;
37787;SDS011;23627;53.302;-6.362;2023-04-23T06:42:00;3.42;;;2.55;;
37787;SDS011;23627;53.302;-6.362;2023-04-23T06:44:26;3.45;;;2.20;;
37787;SDS011;23627;53.302;-6.362;2023-04-23T06:46:52;3.15;;;2.70;;
37787;SDS011;23627;53.302;-6.362;2023-04-23T06:49:18;3.80;;;2.92;;
37787;SDS011;23627;53.302;-6.362;2023-04-23T06:51:43;4.35;;;3.03;;
37787;SDS011;23627;53.302;-6.362;2023-04-23T06:54:09;5.13;;;2.83;;
37787;SDS011;23627;53.302;-6.362;2023-04-23T06:56:35;5.22;;;3.40;;
37787;SDS011;23627;53.302;-6.362;2023-04-23T06:59:01;4.18;;;2.83;;
37787;SDS011;23627;53.302;-6.362;2023-04-23T07:01:27;3.15;;;2.70;;
37787;SDS011;23627;53.302;-6.362;2023-04-23T07:03:53;3.90;;;3.10;;
37787;SDS011;23627;53.302;-6.362;2023-04-23T07:06:19;3.97;;;2.85;;
37787;SDS011;23627;53.302;-6.362;2023-04-23T07:08:44;4.60;;;3.33;;
37787;SDS011;23627;53.302;-6.362;2023-04-23T07:11:10;3.92;;;2.75;;
37787;SDS011;23627;53.302;-6.362;2023-04-23T07:13:36;4.45;;;2.80;;
37787;SDS011;23627;53.302;-6.362;2023-04-23T07:16:03;3.80;;;2.90;;
37787;SDS011;23627;53.302;-6.362;2023-04-23T07:18:28;3.97;;;2.83;;
37787;SDS011;23627;53.302;-6.362;2023-04-23T07:20:54;3.95;;;3.25;;
37787;SDS011;23627;53.302;-6.362;2023-04-23T07:23:20;4.55;;;3.10;;
37787;SDS011;23627;53.302;-6.362;2023-04-23T07:25:46;4.57;;;3.50;;
37787;SDS011;23627;53.302;-6.362;2023-04-23T07:28:12;4.20;;;3.20;;
37787;SDS011;23627;53.302;-6.362;2023-04-23T07:30:38;5.00;;;3.97;;
37787;SDS011;23627;53.302;-6.362;2023-04-23T07:33:04;5.22;;;4.15;;
37787;SDS011;23627;53.302;-6.362;2023-04-23T07:35:29;4.72;;;3.67;;
37787;SDS011;23627;53.302;-6.362;2023-04-23T07:37:55;4.85;;;3.58;;
37787;SDS011;23627;53.302;-6.362;2023-04-23T07:40:22;4.90;;;3.85;;
37787;SDS011;23627;53.302;-6.362;2023-04-23T07:42:48;5.18;;;3.88;;
37787;SDS011;23627;53.302;-6.362;2023-04-23T07:45:15;5.68;;;4.05;;
37787;SDS011;23627;53.302;-6.362;2023-04-23T07:47:41;5.93;;;4.53;;
37787;SDS011;23627;53.302;-6.362;2023-04-23T07:50:07;5.63;;;4.13;;
37787;SDS011;23627;53.302;-6.362;2023-04-23T07:52:33;5.18;;;4.47;;
37787;SDS011;23627;53.302;-6.362;2023-04-23T07:54:59;6.28;;;4.55;;
37787;SDS011;23627;53.302;-6.362;2023-04-23T07:57:25;5.22;;;4.10;;
37787;SDS011;23627;53.302;-6.362;2023-04-23T07:59:50;6.55;;;4.20;;
37787;SDS011;23627;53.302;-6.362;2023-04-23T08:02:16;5.90;;;4.38;;
37787;SDS011;23627;53.302;-6.362;2023-04-23T08:04:42;6.93;;;4.85;;
37787;SDS011;23627;53.302;-6.362;2023-04-23T08:07:08;6.60;;;5.03;;
37787;SDS011;23627;53.302;-6.362;2023-04-23T08:09:33;6.65;;;4.63;;
37787;SDS011;23627;53.302;-6.362;2023-04-23T08:11:59;5.65;;;4.30;;
37787;SDS011;23627;53.302;-6.362;2023-04-23T08:14:26;5.43;;;4.40;;
37787;SDS011;23627;53.302;-6.362;2023-04-23T08:16:51;5.60;;;4.03;;
37787;SDS011;23627;53.302;-6.362;2023-04-23T08:19:17;5.18;;;4.20;;
37787;SDS011;23627;53.302;-6.362;2023-04-23T08:21:43;5.43;;;4.50;;
37787;SDS011;23627;53.302;-6.362;2023-04-23T08:24:09;6.22;;;4.90;;
37787;SDS011;23627;53.302;-6.362;2023-04-23T08:26:34;7.32;;;4.93;;
37787;SDS011;23627;53.302;-6.362;2023-04-23T08:29:00;6.18;;;4.88;;
37787;SDS011;23627;53.302;-6.362;2023-04-23T08:31:27;5.45;;;4.13;;
37787;SDS011;23627;53.302;-6.362;2023-04-23T08:33:53;4.68;;;3.95;;
37787;SDS011;23627;53.302;-6.362;2023-04-23T08:36:18;5.43;;;4.32;;
37787;SDS011;23627;53.302;-6.362;2023-04-23T08:38:45;5.28;;;4.00;;
37787;SDS011;23627;53.302;-6.362;2023-04-23T08:41:11;5.38;;;3.75;;
37787;SDS011;23627;53.302;-6.362;2023-04-23T08:43:43;4.53;;;3.70;;
37787;SDS011;23627;53.302;-6.362;2023-04-23T08:46:15;6.13;;;3.80;;
37787;SDS011;23627;53.302;-6.362;2023-04-23T08:48:43;5.57;;;3.72;;
37787;SDS011;23627;53.302;-6.362;2023-04-23T08:51:09;6.13;;;3.70;;
37787;SDS011;23627;53.302;-6.362;2023-04-23T08:53:42;4.00;;;3.40;;
37787;SDS011;23627;53.302;-6.362;2023-04-23T08:56:09;4.90;;;3.45;;
37787;SDS011;23627;53.302;-6.362;2023-04-23T08:58:35;4.45;;;3.70;;
37787;SDS011;23627;53.302;-6.362;2023-04-23T09:01:01;4.60;;;3.30;;
37787;SDS011;23627;53.302;-6.362;2023-04-23T09:03:27;4.10;;;3.10;;
37787;SDS011;23627;53.302;-6.362;2023-04-23T09:05:53;3.97;;;3.28;;
37787;SDS011;23627;53.302;-6.362;2023-04-23T09:08:20;4.45;;;3.22;;
37787;SDS011;23627;53.302;-6.362;2023-04-23T09:10:45;3.55;;;2.92;;
37787;SDS011;23627;53.302;-6.362;2023-04-23T09:13:11;4.13;;;3.22;;
37787;SDS011;23627;53.302;-6.362;2023-04-23T09:15:40;4.55;;;3.00;;
37787;SDS011;23627;53.302;-6.362;2023-04-23T09:18:09;3.60;;;3.30;;
37787;SDS011;23627;53.302;-6.362;2023-04-23T09:20:35;4.28;;;3.25;;
37787;SDS011;23627;53.302;-6.362;2023-04-23T09:23:05;4.55;;;3.35;;
37787;SDS011;23627;53.302;-6.362;2023-04-23T09:25:32;3.60;;;2.80;;
37787;SDS011;23627;53.302;-6.362;2023-04-23T09:27:58;3.53;;;3.00;;
37787;SDS011;23627;53.302;-6.362;2023-04-23T09:30:26;3.83;;;2.83;;
37787;SDS011;23627;53.302;-6.362;2023-04-23T09:32:53;3.58;;;3.17;;
37787;SDS011;23627;53.302;-6.362;2023-04-23T09:35:19;4.20;;;3.10;;
37787;SDS011;23627;53.302;-6.362;2023-04-23T09:37:46;4.90;;;3.25;;
37787;SDS011;23627;53.302;-6.362;2023-04-23T09:40:13;4.07;;;3.65;;
37787;SDS011;23627;53.302;-6.362;2023-04-23T09:42:41;4.03;;;3.25;;
37787;SDS011;23627;53.302;-6.362;2023-04-23T09:45:12;4.20;;;3.60;;
37787;SDS011;23627;53.302;-6.362;2023-04-23T09:47:39;4.53;;;3.35;;
37787;SDS011;23627;53.302;-6.362;2023-04-23T09:50:06;4.13;;;3.42;;
37787;SDS011;23627;53.302;-6.362;2023-04-23T09:52:37;4.03;;;3.28;;
37787;SDS011;23627;53.302;-6.362;2023-04-23T09:55:04;4.68;;;3.50;;
37787;SDS011;23627;53.302;-6.362;2023-04-23T09:57:34;4.60;;;3.67;;
37787;SDS011;23627;53.302;-6.362;2023-04-23T10:00:15;4.22;;;3.50;;
37787;SDS011;23627;53.302;-6.362;2023-04-23T10:02:47;4.35;;;3.38;;
37787;SDS011;23627;53.302;-6.362;2023-04-23T10:05:17;3.90;;;3.33;;
37787;SDS011;23627;53.302;-6.362;2023-04-23T10:07:45;4.60;;;3.65;;
37787;SDS011;23627;53.302;-6.362;2023-04-23T10:10:13;4.88;;;3.30;;
37787;SDS011;23627;53.302;-6.362;2023-04-23T10:12:40;3.88;;;3.42;;
37787;SDS011;23627;53.302;-6.362;2023-04-23T10:15:08;4.45;;;3.55;;
37787;SDS011;23627;53.302;-6.362;2023-04-23T10:17:35;4.40;;;3.10;;
37787;SDS011;23627;53.302;-6.362;2023-04-23T10:20:01;4.75;;;3.97;;
37787;SDS011;23627;53.302;-6.362;2023-04-23T10:22:28;4.82;;;3.58;;
37787;SDS011;23627;53.302;-6.362;2023-04-23T10:24:55;5.88;;;3.70;;
37787;SDS011;23627;53.302;-6.362;2023-04-23T10:27:28;5.20;;;3.80;;
37787;SDS011;23627;53.302;-6.362;2023-04-23T10:29:59;4.45;;;3.60;;
37787;SDS011;23627;53.302;-6.362;2023-04-23T10:32:26;5.50;;;4.28;;
37787;SDS011;23627;53.302;-6.362;2023-04-23T10:34:52;5.15;;;3.50;;
37787;SDS011;23627;53.302;-6.362;2023-04-23T10:37:18;4.20;;;3.53;;
37787;SDS011;23627;53.302;-6.362;2023-04-23T10:39:46;4.80;;;3.75;;
37787;SDS011;23627;53.302;-6.362;2023-04-23T10:42:17;5.55;;;3.92;;
37787;SDS011;23627;53.302;-6.362;2023-04-23T10:44:43;5.45;;;3.80;;
37787;SDS011;23627;53.302;-6.362;2023-04-23T10:47:16;3.90;;;3.38;;
37787;SDS011;23627;53.302;-6.362;2023-04-23T10:49:42;4.97;;;3.70;;
37787;SDS011;23627;53.302;-6.362;2023-04-23T10:54:39;5.13;;;3.60;;
37787;SDS011;23627;53.302;-6.362;2023-04-23T10:57:06;5.53;;;3.95;;
37787;SDS011;23627;53.302;-6.362;2023-04-23T10:59:34;5.32;;;3.92;;
37787;SDS011;23627;53.302;-6.362;2023-04-23T11:02:06;5.18;;;3.90;;
37787;SDS011;23627;53.302;-6.362;2023-04-23T11:04:41;4.45;;;3.72;;
37787;SDS011;23627;53.302;-6.362;2023-04-23T11:07:11;4.72;;;3.70;;
37787;SDS011;23627;53.302;-6.362;2023-04-23T11:09:38;4.65;;;3.60;;
37787;SDS011;23627;53.302;-6.362;2023-04-23T11:12:50;3.95;;;3.45;;
37787;SDS011;23627;53.302;-6.362;2023-04-23T11:14:51;3.40;;;3.03;;
37787;SDS011;23627;53.302;-6.362;2023-04-23T11:17:21;4.38;;;3.45;;
37787;SDS011;23627;53.302;-6.362;2023-04-23T11:22:49;3.90;;;2.85;;
37787;SDS011;23627;53.302;-6.362;2023-04-23T11:27:50;4.50;;;3.30;;
37787;SDS011;23627;53.302;-6.362;2023-04-23T11:30:18;3.30;;;2.75;;
37787;SDS011;23627;53.302;-6.362;2023-04-23T11:32:47;4.10;;;2.90;;
37787;SDS011;23627;53.302;-6.362;2023-04-23T11:35:16;3.28;;;2.60;;
37787;SDS011;23627;53.302;-6.362;2023-04-23T11:37:43;3.28;;;2.85;;
37787;SDS011;23627;53.302;-6.362;2023-04-23T11:40:11;3.22;;;2.53;;
37787;SDS011;23627;53.302;-6.362;2023-04-23T11:42:42;3.55;;;2.60;;
37787;SDS011;23627;53.302;-6.362;2023-04-23T11:45:20;3.72;;;2.60;;
37787;SDS011;23627;53.302;-6.362;2023-04-23T11:47:53;3.33;;;2.20;;
37787;SDS011;23627;53.302;-6.362;2023-04-23T11:50:24;3.25;;;2.55;;
37787;SDS011;23627;53.302;-6.362;2023-04-23T11:52:51;3.05;;;2.63;;
37787;SDS011;23627;53.302;-6.362;2023-04-23T11:55:17;3.13;;;2.50;;
37787;SDS011;23627;53.302;-6.362;2023-04-23T11:57:49;2.95;;;2.38;;
37787;SDS011;23627;53.302;-6.362;2023-04-23T12:05:22;2.72;;;2.25;;
37787;SDS011;23627;53.302;-6.362;2023-04-23T12:13:25;3.38;;;2.08;;
37787;SDS011;23627;53.302;-6.362;2023-04-23T12:18:32;2.88;;;2.25;;
37787;SDS011;23627;53.302;-6.362;2023-04-23T12:21:08;2.30;;;1.90;;
37787;SDS011;23627;53.302;-6.362;2023-04-23T12:23:36;3.50;;;2.10;;
37787;SDS011;23627;53.302;-6.362;2023-04-23T12:26:03;2.92;;;2.10;;
37787;SDS011;23627;53.302;-6.362;2023-04-23T12:28:34;3.05;;;2.10;;
37787;SDS011;23627;53.302;-6.362;2023-04-23T12:31:22;2.97;;;2.22;;
37787;SDS011;23627;53.302;-6.362;2023-04-23T12:33:55;2.80;;;2.08;;
37787;SDS011;23627;53.302;-6.362;2023-04-23T12:36:42;2.25;;;1.90;;
37787;SDS011;23627;53.302;-6.362;2023-04-23T12:39:18;2.95;;;2.10;;
37787;SDS011;23627;53.302;-6.362;2023-04-23T12:42:01;2.72;;;1.90;;
37787;SDS011;23627;53.302;-6.362;2023-04-23T12:44:35;2.17;;;1.98;;
37787;SDS011;23627;53.302;-6.362;2023-04-23T12:47:08;2.40;;;1.80;;
37787;SDS011;23627;53.302;-6.362;2023-04-23T12:49:37;2.10;;;1.70;;
37787;SDS011;23627;53.302;-6.362;2023-04-23T12:52:06;2.13;;;1.73;;
37787;SDS011;23627;53.302;-6.362;2023-04-23T12:54:36;2.22;;;1.80;;
37787;SDS011;23627;53.302;-6.362;2023-04-23T12:57:07;2.20;;;1.67;;
37787;SDS011;23627;53.302;-6.362;2023-04-23T12:59:36;2.42;;;1.50;;
37787;SDS011;23627;53.302;-6.362;2023-04-23T13:02:02;2.00;;;1.70;;
37787;SDS011;23627;53.302;-6.362;2023-04-23T13:04:30;3.03;;;1.70;;
37787;SDS011;23627;53.302;-6.362;2023-04-23T13:06:58;2.05;;;1.60;;
37787;SDS011;23627;53.302;-6.362;2023-04-23T13:09:24;2.05;;;1.67;;
37787;SDS011;23627;53.302;-6.362;2023-04-23T13:11:51;2.05;;;1.50;;
37787;SDS011;23627;53.302;-6.362;2023-04-23T13:14:17;1.58;;;1.40;;
37787;SDS011;23627;53.302;-6.362;2023-04-23T13:16:43;2.10;;;1.60;;
37787;SDS011;23627;53.302;-6.362;2023-04-23T13:19:09;2.63;;;2.10;;
37787;SDS011;23627;53.302;-6.362;2023-04-23T13:21:37;2.45;;;1.85;;
37787;SDS011;23627;53.302;-6.362;2023-04-23T13:24:03;2.20;;;1.80;;
37787;SDS011;23627;53.302;-6.362;2023-04-23T13:26:29;2.25;;;2.00;;
37787;SDS011;23627;53.302;-6.362;2023-04-23T13:28:57;3.20;;;2.70;;
37787;SDS011;23627;53.302;-6.362;2023-04-23T13:31:23;3.78;;;2.80;;
37787;SDS011;23627;53.302;-6.362;2023-04-23T13:33:50;3.58;;;3.00;;
37787;SDS011;23627;53.302;-6.362;2023-04-23T13:36:16;3.40;;;2.75;;
37787;SDS011;23627;53.302;-6.362;2023-04-23T13:38:42;3.83;;;2.90;;
37787;SDS011;23627;53.302;-6.362;2023-04-23T13:41:08;3.22;;;2.75;;
37787;SDS011;23627;53.302;-6.362;2023-04-23T13:43:34;3.50;;;2.97;;
37787;SDS011;23627;53.302;-6.362;2023-04-23T13:46:00;3.40;;;2.85;;
37787;SDS011;23627;53.302;-6.362;2023-04-23T13:48:27;3.58;;;2.70;;
37787;SDS011;23627;53.302;-6.362;2023-04-23T13:50:55;3.50;;;2.70;;
37787;SDS011;23627;53.302;-6.362;2023-04-23T13:53:22;3.33;;;2.75;;
37787;SDS011;23627;53.302;-6.362;2023-04-23T13:55:48;3.88;;;2.97;;
37787;SDS011;23627;53.302;-6.362;2023-04-23T13:58:14;3.53;;;2.53;;
37787;SDS011;23627;53.302;-6.362;2023-04-23T14:00:40;3.10;;;2.40;;
37787;SDS011;23627;53.302;-6.362;2023-04-23T14:03:07;2.55;;;2.22;;
37787;SDS011;23627;53.302;-6.362;2023-04-23T14:05:33;4.70;;;3.00;;
37787;SDS011;23627;53.302;-6.362;2023-04-23T14:07:59;3.10;;;2.50;;
37787;SDS011;23627;53.302;-6.362;2023-04-23T14:10:24;2.75;;;2.45;;
37787;SDS011;23627;53.302;-6.362;2023-04-23T14:12:50;2.63;;;2.15;;
37787;SDS011;23627;53.302;-6.362;2023-04-23T14:15:17;2.80;;;2.28;;
37787;SDS011;23627;53.302;-6.362;2023-04-23T14:17:43;2.80;;;2.28;;
37787;SDS011;23627;53.302;-6.362;2023-04-23T14:20:10;2.45;;;2.10;;
37787;SDS011;23627;53.302;-6.362;2023-04-23T14:22:36;3.00;;;2.28;;
37787;SDS011;23627;53.302;-6.362;2023-04-23T14:25:03;2.47;;;2.15;;
37787;SDS011;23627;53.302;-6.362;2023-04-23T14:27:38;2.60;;;2.20;;
37787;SDS011;23627;53.302;-6.362;2023-04-23T14:30:06;2.30;;;1.90;;
37787;SDS011;23627;53.302;-6.362;2023-04-23T14:32:39;2.30;;;2.10;;
37787;SDS011;23627;53.302;-6.362;2023-04-23T14:35:13;2.20;;;1.85;;
37787;SDS011;23627;53.302;-6.362;2023-04-23T14:37:50;2.55;;;1.98;;
37787;SDS011;23627;53.302;-6.362;2023-04-23T14:40:18;3.03;;;1.95;;
37787;SDS011;23627;53.302;-6.362;2023-04-23T14:42:45;2.35;;;1.75;;
37787;SDS011;23627;53.302;-6.362;2023-04-23T14:45:12;2.28;;;1.83;;
37787;SDS011;23627;53.302;-6.362;2023-04-23T14:47:38;2.38;;;1.70;;
37787;SDS011;23627;53.302;-6.362;2023-04-23T14:50:06;2.70;;;2.03;;
37787;SDS011;23627;53.302;-6.362;2023-04-23T14:52:32;2.47;;;1.80;;
37787;SDS011;23627;53.302;-6.362;2023-04-23T14:54:58;2.55;;;1.70;;
37787;SDS011;23627;53.302;-6.362;2023-04-23T14:57:24;2.20;;;1.90;;